createdAt,value
2018-05-24T00:00:54.351Z,19.45
2018-05-24T00:01:54.335Z,19.45
2018-05-24T00:02:54.308Z,19.40
2018-05-24T00:03:54.281Z,19.41
2018-05-24T00:04:54.264Z,19.45
2018-05-24T00:05:54.240Z,19.47
2018-05-24T00:06:54.207Z,19.37
2018-05-24T00:07:54.205Z,19.40
2018-05-24T00:08:54.165Z,19.33
2018-05-24T00:09:54.140Z,19.34
2018-05-24T00:10:54.123Z,19.34
2018-05-24T00:11:54.090Z,19.22
2018-05-24T00:12:54.078Z,19.34
2018-05-24T00:13:54.044Z,19.21
2018-05-24T00:14:54.030Z,19.27
2018-05-24T00:15:53.995Z,19.34
2018-05-24T00:16:53.982Z,19.31
2018-05-24T00:17:53.956Z,19.21
2018-05-24T00:18:53.923Z,19.30
2018-05-24T00:19:53.909Z,19.33
2018-05-24T00:20:53.877Z,19.24
2018-05-24T00:21:53.859Z,19.24
2018-05-24T00:22:53.835Z,19.18
2018-05-24T00:23:53.810Z,19.19
2018-05-24T00:24:53.784Z,19.15
2018-05-24T00:25:53.767Z,19.15
2018-05-24T00:26:53.739Z,19.14
2018-05-24T00:27:53.726Z,19.14
2018-05-24T00:28:53.687Z,19.09
2018-05-24T00:29:53.672Z,18.98
2018-05-24T00:30:53.640Z,18.95
2018-05-24T00:31:53.623Z,19.00
2018-05-24T00:32:53.594Z,19.02
2018-05-24T00:33:53.569Z,18.93
2018-05-24T00:34:53.555Z,18.96
2018-05-24T00:35:53.521Z,18.92
2018-05-24T00:36:53.508Z,18.92
2018-05-24T00:37:53.483Z,18.81
2018-05-24T00:38:53.451Z,18.92
2018-05-24T00:39:53.428Z,18.84
2018-05-24T00:40:53.408Z,18.78
2018-05-24T00:41:53.388Z,18.86
2018-05-24T00:42:53.362Z,18.90
2018-05-24T00:43:53.332Z,18.93
2018-05-24T00:44:53.314Z,18.99
2018-05-24T00:45:53.284Z,18.93
2018-05-24T00:46:53.270Z,18.98
2018-05-24T00:47:53.242Z,18.86
2018-05-24T00:48:53.214Z,18.80
2018-05-24T00:49:53.198Z,18.80
2018-05-24T00:50:53.163Z,18.83
2018-05-24T00:51:53.160Z,18.81
2018-05-24T00:52:53.116Z,18.80
2018-05-24T00:53:53.102Z,18.78
2018-05-24T00:54:53.072Z,18.77
2018-05-24T00:55:53.047Z,18.77
2018-05-24T00:56:53.034Z,18.63
2018-05-24T00:57:53.002Z,18.63
2018-05-24T00:58:52.979Z,18.63
2018-05-24T00:59:52.958Z,18.59
2018-05-24T01:00:52.924Z,18.62
2018-05-24T01:01:52.912Z,18.70
2018-05-24T01:02:52.878Z,18.70
2018-05-24T01:03:52.863Z,18.65
2018-05-24T01:04:52.836Z,18.66
2018-05-24T01:05:52.815Z,18.70
2018-05-24T01:06:52.790Z,18.63
2018-05-24T01:07:52.766Z,18.63
2018-05-24T01:08:52.737Z,18.65
2018-05-24T01:09:52.716Z,18.70
2018-05-24T01:10:52.694Z,18.66
2018-05-24T01:11:52.668Z,18.63
2018-05-24T01:12:52.644Z,18.70
2018-05-24T01:13:52.624Z,18.68
2018-05-24T01:14:52.594Z,18.80
2018-05-24T01:15:52.642Z,18.80
2018-05-24T01:16:52.567Z,18.84
2018-05-24T01:17:52.525Z,18.89
2018-05-24T01:18:52.505Z,18.98
2018-05-24T01:19:52.489Z,18.92
2018-05-24T01:20:52.463Z,19.11
2018-05-24T01:21:52.433Z,19.04
2018-05-24T01:22:52.402Z,19.11
2018-05-24T01:23:52.390Z,19.16
2018-05-24T01:24:52.359Z,19.09
2018-05-24T01:25:52.337Z,19.16
2018-05-24T01:26:52.306Z,19.15
2018-05-24T01:27:52.282Z,19.14
2018-05-24T01:28:52.281Z,19.21
2018-05-24T01:29:52.246Z,19.26
2018-05-24T01:30:52.215Z,19.31
2018-05-24T01:31:52.190Z,19.22
2018-05-24T01:32:52.169Z,19.27
2018-05-24T01:33:52.150Z,19.24
2018-05-24T01:34:52.116Z,19.29
2018-05-24T01:35:52.102Z,19.21
2018-05-24T01:36:52.074Z,19.29
2018-05-24T01:37:52.044Z,19.34
2018-05-24T01:38:52.023Z,19.31
2018-05-24T01:39:52.001Z,19.29
2018-05-24T01:40:51.984Z,19.26
2018-05-24T01:41:51.959Z,19.34
2018-05-24T01:42:51.925Z,19.30
2018-05-24T01:43:51.904Z,19.37
2018-05-24T01:44:51.886Z,19.37
2018-05-24T01:45:51.858Z,19.40
2018-05-24T01:46:51.833Z,19.41
2018-05-24T01:47:51.807Z,19.40
2018-05-24T01:48:51.790Z,19.39
2018-05-24T01:49:51.765Z,19.41
2018-05-24T01:50:51.752Z,19.45
2018-05-24T01:51:51.716Z,19.37
2018-05-24T01:52:51.691Z,19.37
2018-05-24T01:53:51.669Z,19.45
2018-05-24T01:54:51.641Z,19.37
2018-05-24T01:55:51.623Z,19.45
2018-05-24T01:56:51.611Z,19.39
2018-05-24T01:57:51.572Z,19.37
2018-05-24T01:58:51.545Z,19.27
2018-05-24T01:59:51.519Z,19.39
2018-05-24T02:00:51.505Z,19.44
2018-05-24T02:01:51.475Z,19.39
2018-05-24T02:02:51.455Z,19.37
2018-05-24T02:03:51.433Z,19.31
2018-05-24T02:04:51.400Z,19.39
2018-05-24T02:05:51.384Z,19.45
2018-05-24T02:06:51.353Z,19.40
2018-05-24T02:07:51.336Z,19.45
2018-05-24T02:08:51.315Z,19.44
2018-05-24T02:09:51.286Z,19.40
2018-05-24T02:10:51.264Z,19.45
2018-05-24T02:11:51.238Z,19.36
2018-05-24T02:12:51.211Z,19.41
2018-05-24T02:13:51.199Z,19.30
2018-05-24T02:14:51.165Z,19.21
2018-05-24T02:15:51.145Z,19.26
2018-05-24T02:16:51.113Z,19.29
2018-05-24T02:17:51.089Z,19.33
2018-05-24T02:18:51.075Z,19.31
2018-05-24T02:19:51.041Z,19.18
2018-05-24T02:20:51.026Z,19.24
2018-05-24T02:21:50.995Z,19.33
2018-05-24T02:22:50.978Z,19.22
2018-05-24T02:23:50.952Z,19.29
2018-05-24T02:24:50.935Z,19.33
2018-05-24T02:25:50.900Z,19.33
2018-05-24T02:26:50.878Z,19.27
2018-05-24T02:27:50.858Z,19.26
2018-05-24T02:28:50.833Z,19.37
2018-05-24T02:29:50.800Z,19.30
2018-05-24T02:30:50.789Z,19.39
2018-05-24T02:31:50.756Z,19.31
2018-05-24T02:32:50.740Z,19.40
2018-05-24T02:33:50.729Z,19.36
2018-05-24T02:34:50.688Z,19.45
2018-05-24T02:35:50.796Z,19.36
2018-05-24T02:36:50.645Z,19.34
2018-05-24T02:37:50.645Z,19.26
2018-05-24T02:38:50.586Z,19.30
2018-05-24T02:39:50.571Z,19.22
2018-05-24T02:40:50.538Z,19.27
2018-05-24T02:41:50.520Z,19.22
2018-05-24T02:42:50.499Z,19.22
2018-05-24T02:43:50.472Z,19.33
2018-05-24T02:44:50.451Z,19.24
2018-05-24T02:45:50.425Z,19.26
2018-05-24T02:46:50.400Z,19.27
2018-05-24T02:47:50.380Z,19.29
2018-05-24T02:48:50.348Z,19.21
2018-05-24T02:49:50.324Z,19.24
2018-05-24T02:50:50.311Z,19.16
2018-05-24T02:51:50.287Z,19.22
2018-05-24T02:52:50.253Z,19.12
2018-05-24T02:53:50.228Z,19.12
2018-05-24T02:54:50.209Z,19.15
2018-05-24T02:55:50.201Z,19.09
2018-05-24T02:56:50.160Z,19.09
2018-05-24T02:57:50.132Z,19.14
2018-05-24T02:58:50.111Z,19.12
2018-05-24T02:59:50.095Z,19.15
2018-05-24T03:00:50.065Z,19.12
2018-05-24T03:01:50.086Z,19.14
2018-05-24T03:02:50.063Z,19.09
2018-05-24T03:03:50.046Z,19.07
2018-05-24T03:04:50.013Z,18.98
2018-05-24T03:05:49.947Z,18.98
2018-05-24T03:06:49.916Z,18.93
2018-05-24T03:07:49.899Z,18.93
2018-05-24T03:08:49.869Z,18.90
2018-05-24T03:09:49.849Z,18.80
2018-05-24T03:10:49.820Z,18.71
2018-05-24T03:11:49.799Z,18.59
2018-05-24T03:12:49.773Z,18.58
2018-05-24T03:13:49.750Z,18.49
2018-05-24T03:14:49.727Z,18.38
2018-05-24T03:15:49.706Z,18.29
2018-05-24T03:16:49.674Z,18.23
2018-05-24T03:17:49.726Z,18.15
2018-05-24T03:18:49.629Z,18.13
2018-05-24T03:19:49.601Z,18.18
2018-05-24T03:20:49.586Z,18.23
2018-05-24T03:21:49.562Z,18.18
2018-05-24T03:22:49.531Z,18.22
2018-05-24T03:23:49.510Z,18.20
2018-05-24T03:24:49.487Z,18.15
2018-05-24T03:25:49.457Z,18.19
2018-05-24T03:26:49.443Z,18.29
2018-05-24T03:27:49.416Z,18.31
2018-05-24T03:28:49.385Z,18.26
2018-05-24T03:29:49.388Z,18.23
2018-05-24T03:30:49.344Z,18.23
2018-05-24T03:31:49.333Z,18.28
2018-05-24T03:32:49.293Z,18.26
2018-05-24T03:33:49.273Z,18.33
2018-05-24T03:34:49.239Z,18.29
2018-05-24T03:35:49.233Z,18.20
2018-05-24T03:36:49.189Z,18.34
2018-05-24T03:37:49.167Z,18.28
2018-05-24T03:38:49.149Z,18.26
2018-05-24T03:39:49.133Z,18.15
2018-05-24T03:40:49.103Z,18.16
2018-05-24T03:41:49.077Z,18.16
2018-05-24T03:42:49.051Z,18.20
2018-05-24T03:43:49.026Z,18.23
2018-05-24T03:44:48.996Z,18.18
2018-05-24T03:45:48.981Z,18.01
2018-05-24T03:46:48.949Z,18.08
2018-05-24T03:47:48.925Z,18.07
2018-05-24T03:48:48.903Z,18.00
2018-05-24T03:49:48.881Z,17.98
2018-05-24T03:50:48.858Z,17.90
2018-05-24T03:51:48.832Z,17.83
2018-05-24T03:52:48.806Z,17.79
2018-05-24T03:53:48.783Z,17.82
2018-05-24T03:54:48.779Z,17.76
2018-05-24T03:55:48.733Z,17.76
2018-05-24T03:56:48.709Z,17.65
2018-05-24T03:57:48.747Z,17.68
2018-05-24T03:58:48.660Z,17.64
2018-05-24T03:59:48.633Z,17.60
2018-05-24T04:00:48.613Z,17.60
2018-05-24T04:01:48.589Z,17.52
2018-05-24T04:02:48.626Z,17.45
2018-05-24T04:03:48.540Z,17.51
2018-05-24T04:04:48.513Z,17.46
2018-05-24T04:05:48.498Z,17.48
2018-05-24T04:06:48.462Z,17.38
2018-05-24T04:07:48.448Z,17.52
2018-05-24T04:08:48.411Z,17.42
2018-05-24T04:09:48.395Z,17.48
2018-05-24T04:10:48.365Z,17.46
2018-05-24T04:11:48.348Z,17.44
2018-05-24T04:12:48.316Z,17.49
2018-05-24T04:13:48.299Z,17.44
2018-05-24T04:14:48.272Z,17.54
2018-05-24T04:15:48.266Z,17.64
2018-05-24T04:16:48.248Z,17.49
2018-05-24T04:17:48.203Z,17.52
2018-05-24T04:18:48.173Z,17.57
2018-05-24T04:19:48.151Z,17.57
2018-05-24T04:20:48.125Z,17.60
2018-05-24T04:21:48.100Z,17.64
2018-05-24T04:22:48.079Z,17.56
2018-05-24T04:23:48.051Z,17.42
2018-05-24T04:24:48.024Z,17.54
2018-05-24T04:25:47.999Z,17.64
2018-05-24T04:26:47.980Z,17.60
2018-05-24T04:27:47.958Z,17.63
2018-05-24T04:28:47.925Z,17.59
2018-05-24T04:29:47.901Z,17.67
2018-05-24T04:30:47.882Z,17.63
2018-05-24T04:31:47.862Z,17.67
2018-05-24T04:32:47.848Z,17.54
2018-05-24T04:33:47.808Z,17.67
2018-05-24T04:34:47.785Z,17.68
2018-05-24T04:35:47.767Z,17.70
2018-05-24T04:36:47.731Z,17.68
2018-05-24T04:37:47.708Z,17.59
2018-05-24T04:38:47.689Z,17.70
2018-05-24T04:39:47.667Z,17.72
2018-05-24T04:40:47.675Z,17.67
2018-05-24T04:41:47.623Z,17.71
2018-05-24T04:42:47.598Z,17.64
2018-05-24T04:43:47.571Z,17.68
2018-05-24T04:44:47.547Z,17.71
2018-05-24T04:45:47.512Z,17.65
2018-05-24T04:46:47.499Z,17.70
2018-05-24T04:47:47.469Z,17.74
2018-05-24T04:48:47.440Z,17.71
2018-05-24T04:49:47.423Z,17.70
2018-05-24T04:50:47.390Z,17.78
2018-05-24T04:51:47.366Z,17.71
2018-05-24T04:52:47.344Z,17.74
2018-05-24T04:53:47.314Z,17.67
2018-05-24T04:54:47.301Z,17.63
2018-05-24T04:55:47.266Z,17.63
2018-05-24T04:56:47.251Z,17.64
2018-05-24T04:57:47.226Z,17.68
2018-05-24T04:58:47.197Z,17.65
2018-05-24T04:59:47.256Z,17.64
2018-05-24T05:00:47.146Z,17.70
2018-05-24T05:01:47.124Z,17.71
2018-05-24T05:02:47.133Z,17.70
2018-05-24T05:03:47.080Z,17.63
2018-05-24T05:04:47.053Z,17.68
2018-05-24T05:05:47.030Z,17.65
2018-05-24T05:06:47.001Z,17.56
2018-05-24T05:07:46.981Z,17.70
2018-05-24T05:08:46.951Z,17.74
2018-05-24T05:09:46.983Z,17.76
2018-05-24T05:10:46.905Z,17.76
2018-05-24T05:11:46.879Z,17.72
2018-05-24T05:12:46.860Z,17.85
2018-05-24T05:13:46.831Z,17.89
2018-05-24T05:14:46.913Z,17.83
2018-05-24T05:15:46.779Z,17.76
2018-05-24T05:16:46.766Z,17.82
2018-05-24T05:17:46.740Z,17.82
2018-05-24T05:18:46.726Z,17.85
2018-05-24T05:19:46.688Z,17.90
2018-05-24T05:20:46.670Z,17.87
2018-05-24T05:21:46.637Z,17.87
2018-05-24T05:22:46.614Z,17.90
2018-05-24T05:23:46.588Z,17.85
2018-05-24T05:24:46.570Z,17.95
2018-05-24T05:25:46.539Z,17.94
2018-05-24T05:26:46.532Z,17.90
2018-05-24T05:27:46.493Z,17.97
2018-05-24T05:28:46.468Z,17.94
2018-05-24T05:29:46.442Z,18.01
2018-05-24T05:30:46.421Z,17.97
2018-05-24T05:31:46.415Z,18.03
2018-05-24T05:32:46.369Z,18.04
2018-05-24T05:33:46.354Z,18.11
2018-05-24T05:34:46.317Z,18.10
2018-05-24T05:35:46.301Z,18.05
2018-05-24T05:36:46.280Z,18.04
2018-05-24T05:37:46.245Z,18.10
2018-05-24T05:38:46.222Z,18.05
2018-05-24T05:39:46.200Z,18.08
2018-05-24T05:40:46.349Z,18.07
2018-05-24T05:41:46.158Z,18.08
2018-05-24T05:42:46.134Z,18.19
2018-05-24T05:43:46.102Z,18.05
2018-05-24T05:44:46.162Z,18.05
2018-05-24T05:45:46.052Z,18.04
2018-05-24T05:46:46.036Z,18.01
2018-05-24T05:47:46.006Z,17.98
2018-05-24T05:48:46.003Z,17.90
2018-05-24T05:49:45.953Z,18.00
2018-05-24T05:50:45.935Z,17.94
2018-05-24T05:51:45.917Z,17.98
2018-05-24T05:52:45.906Z,17.92
2018-05-24T05:53:45.865Z,17.90
2018-05-24T05:54:45.832Z,17.89
2018-05-24T05:55:45.817Z,17.85
2018-05-24T05:56:45.782Z,17.87
2018-05-24T05:57:45.768Z,17.83
2018-05-24T05:58:45.745Z,17.85
2018-05-24T05:59:45.717Z,17.86
2018-05-24T06:00:45.708Z,17.85
2018-05-24T06:01:45.688Z,17.85
2018-05-24T06:02:45.691Z,17.94
2018-05-24T06:03:45.619Z,17.94
2018-05-24T06:04:45.594Z,17.94
2018-05-24T06:05:45.575Z,17.95
2018-05-24T06:06:45.546Z,17.97
2018-05-24T06:07:45.524Z,17.97
2018-05-24T06:08:45.489Z,18.05
2018-05-24T06:09:45.475Z,18.16
2018-05-24T06:10:45.453Z,18.07
2018-05-24T06:11:45.423Z,18.19
2018-05-24T06:12:45.406Z,18.13
2018-05-24T06:13:45.391Z,18.23
2018-05-24T06:14:45.345Z,18.25
2018-05-24T06:15:45.325Z,18.28
2018-05-24T06:16:45.301Z,18.33
2018-05-24T06:17:45.280Z,18.40
2018-05-24T06:18:45.251Z,18.40
2018-05-24T06:19:45.236Z,18.38
2018-05-24T06:20:45.214Z,18.53
2018-05-24T06:21:45.183Z,18.49
2018-05-24T06:22:45.157Z,18.47
2018-05-24T06:23:45.134Z,18.47
2018-05-24T06:24:45.119Z,18.55
2018-05-24T06:25:45.090Z,18.65
2018-05-24T06:26:45.055Z,18.56
2018-05-24T06:27:45.031Z,18.59
2018-05-24T06:28:45.011Z,18.65
2018-05-24T06:29:44.989Z,18.70
2018-05-24T06:30:44.959Z,18.78
2018-05-24T06:31:44.947Z,18.77
2018-05-24T06:32:44.918Z,18.81
2018-05-24T06:33:44.895Z,18.77
2018-05-24T06:34:44.862Z,18.84
2018-05-24T06:35:44.842Z,18.84
2018-05-24T06:36:44.826Z,18.95
2018-05-24T06:37:44.800Z,18.95
2018-05-24T06:38:44.763Z,18.93
2018-05-24T06:39:44.748Z,18.95
2018-05-24T06:40:44.721Z,19.04
2018-05-24T06:41:44.694Z,19.09
2018-05-24T06:42:44.668Z,19.16
2018-05-24T06:43:44.647Z,19.12
2018-05-24T06:44:44.632Z,19.14
2018-05-24T06:45:44.608Z,19.09
2018-05-24T06:46:44.574Z,19.22
2018-05-24T06:47:44.552Z,19.18
2018-05-24T06:48:44.528Z,19.16
2018-05-24T06:49:44.501Z,19.12
2018-05-24T06:50:44.498Z,19.14
2018-05-24T06:51:44.457Z,19.16
2018-05-24T06:52:44.431Z,19.09
2018-05-24T06:53:44.445Z,19.14
2018-05-24T06:54:44.383Z,19.11
2018-05-24T06:55:44.363Z,19.09
2018-05-24T06:56:44.356Z,19.11
2018-05-24T06:57:44.315Z,19.14
2018-05-24T06:58:44.303Z,19.12
2018-05-24T06:59:44.263Z,19.11
2018-05-24T07:00:44.235Z,19.19
2018-05-24T07:01:44.212Z,19.21
2018-05-24T07:02:44.214Z,19.27
2018-05-24T07:03:44.167Z,19.30
2018-05-24T07:04:44.148Z,19.33
2018-05-24T07:05:44.125Z,19.34
2018-05-24T07:06:44.093Z,19.29
2018-05-24T07:07:44.076Z,19.39
2018-05-24T07:08:44.056Z,19.34
2018-05-24T07:09:44.024Z,19.40
2018-05-24T07:10:44.003Z,19.31
2018-05-24T07:11:43.979Z,19.31
2018-05-24T07:12:43.950Z,19.34
2018-05-24T07:13:43.936Z,19.30
2018-05-24T07:14:43.901Z,19.39
2018-05-24T07:15:43.876Z,19.41
2018-05-24T07:16:43.855Z,19.44
2018-05-24T07:17:43.833Z,19.34
2018-05-24T07:18:43.808Z,19.41
2018-05-24T07:19:43.780Z,19.34
2018-05-24T07:20:43.767Z,19.34
2018-05-24T07:21:43.738Z,19.40
2018-05-24T07:22:43.713Z,19.37
2018-05-24T07:23:43.697Z,19.36
2018-05-24T07:24:43.755Z,19.36
2018-05-24T07:25:43.647Z,19.34
2018-05-24T07:26:43.614Z,19.41
2018-05-24T07:27:43.591Z,19.39
2018-05-24T07:28:43.573Z,19.40
2018-05-24T07:29:43.543Z,19.31
2018-05-24T07:30:43.529Z,19.33
2018-05-24T07:31:43.499Z,19.34
2018-05-24T07:32:43.473Z,19.37
2018-05-24T07:33:43.450Z,19.36
2018-05-24T07:34:43.428Z,19.40
2018-05-24T07:35:43.407Z,19.41
2018-05-24T07:36:43.388Z,19.41
2018-05-24T07:37:43.395Z,19.44
2018-05-24T07:38:43.343Z,19.39
2018-05-24T07:39:43.392Z,19.36
2018-05-24T07:40:43.288Z,19.40
2018-05-24T07:41:43.257Z,19.37
2018-05-24T07:42:43.240Z,19.39
2018-05-24T07:43:43.214Z,19.44
2018-05-24T07:44:43.187Z,19.41
2018-05-24T07:45:43.174Z,19.37
2018-05-24T07:46:43.142Z,19.44
2018-05-24T07:47:43.114Z,19.37
2018-05-24T07:48:43.099Z,19.41
2018-05-24T07:49:43.072Z,19.34
2018-05-24T07:50:43.045Z,19.24
2018-05-24T07:51:43.022Z,19.12
2018-05-24T07:52:42.994Z,19.11
2018-05-24T07:53:42.974Z,19.15
2018-05-24T07:54:42.996Z,19.09
2018-05-24T07:55:42.924Z,19.12
2018-05-24T07:56:42.903Z,19.11
2018-05-24T07:57:42.913Z,18.88
2018-05-24T07:58:42.847Z,18.92
2018-05-24T07:59:42.837Z,18.98
2018-05-24T08:00:42.802Z,18.88
2018-05-24T08:01:42.841Z,19.00
2018-05-24T08:02:42.764Z,19.11
2018-05-24T08:03:42.740Z,19.18
2018-05-24T08:04:42.710Z,19.15
2018-05-24T08:05:42.708Z,19.15
2018-05-24T08:06:42.690Z,19.16
2018-05-24T08:07:42.659Z,19.22
2018-05-24T08:08:42.662Z,19.33
2018-05-24T08:09:42.605Z,19.41
2018-05-24T08:10:42.569Z,19.45
2018-05-24T08:11:42.539Z,19.54
2018-05-24T08:12:42.533Z,19.64
2018-05-24T08:13:42.546Z,19.74
2018-05-24T08:14:42.527Z,19.74
2018-05-24T08:15:42.480Z,19.70
2018-05-24T08:16:42.455Z,19.85
2018-05-24T08:17:42.437Z,19.94
2018-05-24T08:18:42.371Z,19.99
2018-05-24T08:19:42.350Z,20.00
2018-05-24T08:20:42.323Z,20.00
2018-05-24T08:21:42.312Z,20.07
2018-05-24T08:22:42.292Z,20.04
2018-05-24T08:23:42.253Z,20.18
2018-05-24T08:24:42.237Z,20.34
2018-05-24T08:25:42.209Z,20.28
2018-05-24T08:26:42.191Z,20.24
2018-05-24T08:27:42.165Z,20.32
2018-05-24T08:28:42.142Z,20.34
2018-05-24T08:29:42.114Z,20.39
2018-05-24T08:30:42.094Z,20.50
2018-05-24T08:31:42.075Z,20.56
2018-05-24T08:32:42.039Z,20.67
2018-05-24T08:33:42.031Z,20.75
2018-05-24T08:34:41.994Z,20.88
2018-05-24T08:35:41.973Z,21.00
2018-05-24T08:36:41.954Z,21.15
2018-05-24T08:37:41.928Z,21.27
2018-05-24T08:38:41.900Z,21.42
2018-05-24T08:39:41.883Z,21.48
2018-05-24T08:40:41.862Z,21.45
2018-05-24T08:41:41.870Z,21.57
2018-05-24T08:42:41.810Z,21.60
2018-05-24T08:43:41.787Z,21.69
2018-05-24T08:44:41.777Z,21.60
2018-05-24T08:45:41.747Z,21.77
2018-05-24T08:46:41.712Z,21.80
2018-05-24T08:47:41.694Z,21.93
2018-05-24T08:48:41.668Z,22.00
2018-05-24T08:49:41.648Z,22.00
2018-05-24T08:50:41.628Z,21.99
2018-05-24T08:51:41.599Z,22.00
2018-05-24T08:52:41.638Z,21.93
2018-05-24T08:53:41.554Z,21.92
2018-05-24T08:54:41.532Z,21.89
2018-05-24T08:55:41.517Z,21.88
2018-05-24T08:56:41.484Z,21.79
2018-05-24T08:57:41.467Z,21.77
2018-05-24T08:58:41.444Z,21.75
2018-05-24T08:59:41.429Z,21.75
2018-05-24T09:00:41.404Z,21.57
2018-05-24T09:01:41.366Z,21.57
2018-05-24T09:02:41.379Z,21.55
2018-05-24T09:03:41.334Z,21.48
2018-05-24T09:04:41.303Z,21.51
2018-05-24T09:05:41.284Z,21.48
2018-05-24T09:06:41.252Z,21.35
2018-05-24T09:07:41.232Z,21.36
2018-05-24T09:08:41.212Z,21.37
2018-05-24T09:09:41.190Z,21.33
2018-05-24T09:10:41.164Z,21.30
2018-05-24T09:11:41.137Z,21.30
2018-05-24T09:12:41.132Z,21.32
2018-05-24T09:13:41.093Z,21.37
2018-05-24T09:14:41.076Z,21.37
2018-05-24T09:15:41.055Z,21.40
2018-05-24T09:16:41.022Z,21.33
2018-05-24T09:17:41.008Z,21.45
2018-05-24T09:18:40.976Z,21.37
2018-05-24T09:19:40.955Z,21.45
2018-05-24T09:20:40.935Z,21.48
2018-05-24T09:21:40.908Z,21.54
2018-05-24T09:22:40.892Z,21.48
2018-05-24T09:23:40.865Z,21.58
2018-05-24T09:24:40.840Z,21.62
2018-05-24T09:25:40.822Z,21.52
2018-05-24T09:26:40.792Z,21.55
2018-05-24T09:27:40.776Z,21.67
2018-05-24T09:28:40.745Z,21.61
2018-05-24T09:29:40.722Z,21.70
2018-05-24T09:30:40.709Z,21.62
2018-05-24T09:31:40.699Z,21.73
2018-05-24T09:32:40.661Z,21.82
2018-05-24T09:33:40.636Z,21.76
2018-05-24T09:34:40.663Z,21.73
2018-05-24T09:35:40.587Z,21.79
2018-05-24T09:36:40.604Z,21.91
2018-05-24T09:37:40.552Z,21.92
2018-05-24T09:38:40.516Z,21.99
2018-05-24T09:39:40.526Z,22.02
2018-05-24T09:40:40.469Z,21.96
2018-05-24T09:41:40.447Z,22.00
2018-05-24T09:42:40.431Z,22.08
2018-05-24T09:43:40.405Z,22.17
2018-05-24T09:44:40.384Z,22.13
2018-05-24T09:45:40.371Z,22.14
2018-05-24T09:46:40.331Z,22.18
2018-05-24T09:47:40.316Z,22.17
2018-05-24T09:48:40.289Z,22.25
2018-05-24T09:49:40.271Z,22.28
2018-05-24T09:50:40.253Z,22.41
2018-05-24T09:51:40.220Z,22.33
2018-05-24T09:52:40.200Z,22.44
2018-05-24T09:53:40.176Z,22.53
2018-05-24T09:54:40.152Z,22.55
2018-05-24T09:55:40.125Z,22.57
2018-05-24T09:56:40.109Z,22.48
2018-05-24T09:57:40.085Z,22.44
2018-05-24T09:58:40.063Z,22.53
2018-05-24T09:59:40.048Z,22.55
2018-05-24T10:00:40.015Z,22.65
2018-05-24T10:01:39.998Z,22.65
2018-05-24T10:02:40.018Z,22.62
2018-05-24T10:03:39.952Z,22.75
2018-05-24T10:04:39.947Z,22.85
2018-05-24T10:05:39.897Z,22.83
2018-05-24T10:06:39.878Z,22.91
2018-05-24T10:07:39.855Z,22.90
2018-05-24T10:08:39.838Z,22.88
2018-05-24T10:09:39.810Z,22.87
2018-05-24T10:10:39.825Z,22.99
2018-05-24T10:11:39.767Z,22.93
2018-05-24T10:12:39.742Z,22.99
2018-05-24T10:13:39.720Z,22.94
2018-05-24T10:14:39.704Z,23.00
2018-05-24T10:15:39.672Z,23.03
2018-05-24T10:16:39.659Z,22.99
2018-05-24T10:17:39.639Z,23.03
2018-05-24T10:18:39.604Z,23.17
2018-05-24T10:19:39.589Z,23.10
2018-05-24T10:20:39.564Z,23.15
2018-05-24T10:21:39.540Z,23.21
2018-05-24T10:22:39.511Z,23.23
2018-05-24T10:23:39.495Z,23.28
2018-05-24T10:24:39.480Z,23.37
2018-05-24T10:25:39.497Z,23.36
2018-05-24T10:26:39.432Z,23.48
2018-05-24T10:27:39.403Z,23.50
2018-05-24T10:28:39.395Z,23.58
2018-05-24T10:29:39.364Z,23.55
2018-05-24T10:30:39.333Z,23.73
2018-05-24T10:31:39.332Z,23.87
2018-05-24T10:32:39.294Z,23.80
2018-05-24T10:33:39.266Z,23.93
2018-05-24T10:34:39.273Z,23.87
2018-05-24T10:35:39.222Z,23.93
2018-05-24T10:36:39.210Z,23.95
2018-05-24T10:37:39.185Z,24.10
2018-05-24T10:38:39.162Z,24.10
2018-05-24T10:39:39.216Z,24.21
2018-05-24T10:40:39.119Z,24.08
2018-05-24T10:41:39.097Z,24.18
2018-05-24T10:42:39.072Z,24.18
2018-05-24T10:43:39.054Z,24.36
2018-05-24T10:44:39.030Z,24.32
2018-05-24T10:45:39.001Z,24.38
2018-05-24T10:46:38.989Z,24.30
2018-05-24T10:47:38.957Z,24.43
2018-05-24T10:48:38.946Z,24.47
2018-05-24T10:49:38.921Z,24.47
2018-05-24T10:50:38.887Z,24.38
2018-05-24T10:51:38.875Z,24.45
2018-05-24T10:52:38.848Z,24.40
2018-05-24T10:53:38.838Z,24.36
2018-05-24T10:54:38.809Z,24.47
2018-05-24T10:55:38.790Z,24.32
2018-05-24T10:56:38.825Z,24.48
2018-05-24T10:57:38.739Z,24.42
2018-05-24T10:58:38.731Z,24.45
2018-05-24T10:59:38.736Z,24.45
2018-05-24T11:00:38.672Z,24.47
2018-05-24T11:01:38.652Z,24.48
2018-05-24T11:02:38.684Z,24.57
2018-05-24T11:03:38.609Z,24.68
2018-05-24T11:04:38.583Z,24.73
2018-05-24T11:05:38.570Z,24.70
2018-05-24T11:06:38.540Z,24.73
2018-05-24T11:07:38.515Z,24.84
2018-05-24T11:08:38.503Z,24.77
2018-05-24T11:09:38.477Z,24.69
2018-05-24T11:10:38.459Z,24.78
2018-05-24T11:11:38.444Z,24.92
2018-05-24T11:12:38.416Z,24.95
2018-05-24T11:13:38.389Z,25.06
2018-05-24T11:14:38.378Z,25.03
2018-05-24T11:15:38.361Z,25.13
2018-05-24T11:16:38.331Z,25.07
2018-05-24T11:17:38.299Z,25.08
2018-05-24T11:18:38.288Z,25.28
2018-05-24T11:19:38.255Z,25.08
2018-05-24T11:20:38.240Z,25.14
2018-05-24T11:21:38.241Z,25.21
2018-05-24T11:22:38.193Z,25.29
2018-05-24T11:23:38.180Z,25.32
2018-05-24T11:24:38.249Z,25.43
2018-05-24T11:25:38.137Z,25.55
2018-05-24T11:26:38.108Z,25.54
2018-05-24T11:27:38.094Z,25.60
2018-05-24T11:28:38.082Z,25.69
2018-05-24T11:29:38.043Z,25.77
2018-05-24T11:30:38.028Z,25.80
2018-05-24T11:31:38.029Z,25.65
2018-05-24T11:32:37.976Z,25.54
2018-05-24T11:33:37.953Z,25.66
2018-05-24T11:34:37.938Z,25.68
2018-05-24T11:35:37.922Z,25.80
2018-05-24T11:36:37.890Z,25.93
2018-05-24T11:37:37.881Z,25.93
2018-05-24T11:38:37.846Z,25.99
2018-05-24T11:39:37.827Z,25.85
2018-05-24T11:40:37.810Z,25.98
2018-05-24T11:41:37.783Z,26.05
2018-05-24T11:42:37.764Z,26.21
2018-05-24T11:43:37.757Z,26.23
2018-05-24T11:44:37.719Z,26.47
2018-05-24T11:45:37.702Z,26.53
2018-05-24T11:46:37.683Z,26.43
2018-05-24T11:47:37.653Z,26.48
2018-05-24T11:48:37.644Z,26.60
2018-05-24T11:49:37.619Z,26.63
2018-05-24T11:50:37.592Z,26.77
2018-05-24T11:51:37.570Z,26.93
2018-05-24T11:52:37.552Z,26.96
2018-05-24T11:53:37.528Z,26.96
2018-05-24T11:54:37.517Z,26.77
2018-05-24T11:55:37.491Z,26.84
2018-05-24T11:56:37.469Z,26.92
2018-05-24T11:57:37.483Z,26.85
2018-05-24T11:58:37.425Z,26.89
2018-05-24T11:59:37.401Z,26.85
2018-05-24T12:00:37.386Z,26.88
2018-05-24T12:01:37.363Z,26.92
2018-05-24T12:02:37.344Z,26.81
2018-05-24T12:03:37.326Z,26.97
2018-05-24T12:04:37.295Z,27.03
2018-05-24T12:05:37.293Z,26.93
2018-05-24T12:06:37.258Z,27.05
2018-05-24T12:07:37.241Z,27.12
2018-05-24T12:08:37.216Z,27.35
2018-05-24T12:09:37.197Z,27.35
2018-05-24T12:10:37.177Z,27.47
2018-05-24T12:11:37.153Z,27.45
2018-05-24T12:12:37.146Z,27.37
2018-05-24T12:13:37.114Z,27.29
2018-05-24T12:14:37.095Z,27.26
2018-05-24T12:15:37.070Z,27.03
2018-05-24T12:16:37.053Z,27.21
2018-05-24T12:17:37.032Z,27.15
2018-05-24T12:18:37.009Z,27.17
2018-05-24T12:19:36.991Z,27.17
2018-05-24T12:20:36.973Z,27.05
2018-05-24T12:21:36.952Z,27.10
2018-05-24T12:22:36.926Z,27.17
2018-05-24T12:23:36.957Z,27.20
2018-05-24T12:24:36.885Z,27.07
2018-05-24T12:25:36.868Z,27.00
2018-05-24T12:26:36.851Z,26.89
2018-05-24T12:27:36.824Z,26.81
2018-05-24T12:28:36.814Z,26.73
2018-05-24T12:29:36.779Z,26.55
2018-05-24T12:30:36.763Z,26.53
2018-05-24T12:31:36.739Z,26.33
2018-05-24T12:32:36.725Z,26.22
2018-05-24T12:33:36.709Z,26.02
2018-05-24T12:34:36.679Z,25.98
2018-05-24T12:35:36.714Z,25.83
2018-05-24T12:36:36.650Z,25.85
2018-05-24T12:37:36.615Z,25.75
2018-05-24T12:38:36.606Z,25.70
2018-05-24T12:39:36.575Z,25.54
2018-05-24T12:40:36.555Z,25.51
2018-05-24T12:41:36.541Z,25.43
2018-05-24T12:42:36.507Z,25.43
2018-05-24T12:43:36.487Z,25.46
2018-05-24T12:44:36.468Z,25.36
2018-05-24T12:45:36.451Z,25.35
2018-05-24T12:46:36.422Z,25.25
2018-05-24T12:47:36.412Z,25.21
2018-05-24T12:48:36.380Z,25.11
2018-05-24T12:49:36.363Z,25.11
2018-05-24T12:50:36.337Z,25.03
2018-05-24T12:51:36.322Z,25.01
2018-05-24T12:52:36.305Z,24.96